sensor_id;sensor_type;location;lat;lon;timestamp;temperature;humidity
40538;DHT22;27925;41.874;12.526;2023-03-14T00:02:26;15.00;83.60
40538;DHT22;27925;41.874;12.526;2023-03-14T00:04:54;15.00;83.40
40538;DHT22;27925;41.874;12.526;2023-03-14T00:07:21;15.00;83.20
40538;DHT22;27925;41.874;12.526;2023-03-14T00:09:50;15.00;82.70
40538;DHT22;27925;41.874;12.526;2023-03-14T00:12:15;15.00;82.60
40538;DHT22;27925;41.874;12.526;2023-03-14T00:14:41;15.00;82.30
40538;DHT22;27925;41.874;12.526;2023-03-14T00:17:08;15.00;82.30
40538;DHT22;27925;41.874;12.526;2023-03-14T00:19:34;15.00;82.20
40538;DHT22;27925;41.874;12.526;2023-03-14T00:21:59;15.00;82.10
40538;DHT22;27925;41.874;12.526;2023-03-14T00:24:25;15.00;82.10
40538;DHT22;27925;41.874;12.526;2023-03-14T00:26:51;15.00;81.70
40538;DHT22;27925;41.874;12.526;2023-03-14T00:29:17;15.00;81.60
40538;DHT22;27925;41.874;12.526;2023-03-14T00:31:43;15.00;81.50
40538;DHT22;27925;41.874;12.526;2023-03-14T00:34:08;15.00;81.60
40538;DHT22;27925;41.874;12.526;2023-03-14T00:36:34;15.00;81.80
40538;DHT22;27925;41.874;12.526;2023-03-14T00:39:00;15.00;81.90
40538;DHT22;27925;41.874;12.526;2023-03-14T00:41:25;14.90;81.90
40538;DHT22;27925;41.874;12.526;2023-03-14T00:43:51;14.90;82.10
40538;DHT22;27925;41.874;12.526;2023-03-14T00:46:17;14.90;82.20
40538;DHT22;27925;41.874;12.526;2023-03-14T00:48:45;14.90;82.30
40538;DHT22;27925;41.874;12.526;2023-03-14T00:51:12;14.90;82.30
40538;DHT22;27925;41.874;12.526;2023-03-14T00:53:40;14.80;82.50
40538;DHT22;27925;41.874;12.526;2023-03-14T00:56:08;14.80;82.70
40538;DHT22;27925;41.874;12.526;2023-03-14T00:58:35;14.70;83.00
40538;DHT22;27925;41.874;12.526;2023-03-14T01:01:09;14.70;83.00
40538;DHT22;27925;41.874;12.526;2023-03-14T01:03:35;14.70;83.90
40538;DHT22;27925;41.874;12.526;2023-03-14T01:06:09;14.70;83.20
40538;DHT22;27925;41.874;12.526;2023-03-14T01:08:35;14.60;83.60
40538;DHT22;27925;41.874;12.526;2023-03-14T01:11:08;14.60;83.70
40538;DHT22;27925;41.874;12.526;2023-03-14T01:13:34;14.50;83.60
40538;DHT22;27925;41.874;12.526;2023-03-14T01:16:05;14.50;83.80
40538;DHT22;27925;41.874;12.526;2023-03-14T01:18:32;14.50;83.80
40538;DHT22;27925;41.874;12.526;2023-03-14T01:20:58;14.50;84.30
40538;DHT22;27925;41.874;12.526;2023-03-14T01:23:24;14.50;83.60
40538;DHT22;27925;41.874;12.526;2023-03-14T01:25:50;14.50;83.70
40538;DHT22;27925;41.874;12.526;2023-03-14T01:28:16;14.50;83.70
40538;DHT22;27925;41.874;12.526;2023-03-14T01:30:42;14.40;83.40
40538;DHT22;27925;41.874;12.526;2023-03-14T01:33:07;14.40;83.70
40538;DHT22;27925;41.874;12.526;2023-03-14T01:35:33;14.40;83.60
40538;DHT22;27925;41.874;12.526;2023-03-14T01:37:59;14.40;83.70
40538;DHT22;27925;41.874;12.526;2023-03-14T01:40:24;14.30;83.60
40538;DHT22;27925;41.874;12.526;2023-03-14T01:42:57;14.30;83.60
40538;DHT22;27925;41.874;12.526;2023-03-14T01:48:24;14.30;83.90
40538;DHT22;27925;41.874;12.526;2023-03-14T01:50:50;14.30;83.10
40538;DHT22;27925;41.874;12.526;2023-03-14T01:53:16;14.20;83.20
40538;DHT22;27925;41.874;12.526;2023-03-14T01:55:48;14.20;83.00
40538;DHT22;27925;41.874;12.526;2023-03-14T01:58:16;14.20;82.80
40538;DHT22;27925;41.874;12.526;2023-03-14T02:00:43;14.20;82.70
40538;DHT22;27925;41.874;12.526;2023-03-14T02:03:14;14.20;82.70
40538;DHT22;27925;41.874;12.526;2023-03-14T02:05:42;14.20;82.50
40538;DHT22;27925;41.874;12.526;2023-03-14T02:08:11;14.20;82.40
40538;DHT22;27925;41.874;12.526;2023-03-14T02:10:41;14.20;82.10
40538;DHT22;27925;41.874;12.526;2023-03-14T02:13:08;14.20;81.80
40538;DHT22;27925;41.874;12.526;2023-03-14T02:15:34;14.20;81.60
40538;DHT22;27925;41.874;12.526;2023-03-14T02:18:02;14.20;81.40
40538;DHT22;27925;41.874;12.526;2023-03-14T02:23:47;14.10;81.20
40538;DHT22;27925;41.874;12.526;2023-03-14T02:28:45;14.20;80.50
40538;DHT22;27925;41.874;12.526;2023-03-14T02:31:11;14.10;80.00
40538;DHT22;27925;41.874;12.526;2023-03-14T02:33:38;14.10;79.60
40538;DHT22;27925;41.874;12.526;2023-03-14T02:36:10;14.10;79.60
40538;DHT22;27925;41.874;12.526;2023-03-14T02:41:44;14.00;79.40
40538;DHT22;27925;41.874;12.526;2023-03-14T02:44:11;14.00;79.10
40538;DHT22;27925;41.874;12.526;2023-03-14T02:46:37;14.00;78.90
40538;DHT22;27925;41.874;12.526;2023-03-14T02:49:14;14.00;78.60
40538;DHT22;27925;41.874;12.526;2023-03-14T02:51:41;14.10;78.30
40538;DHT22;27925;41.874;12.526;2023-03-14T02:54:08;14.10;78.30
40538;DHT22;27925;41.874;12.526;2023-03-14T02:56:34;14.10;78.10
40538;DHT22;27925;41.874;12.526;2023-03-14T02:59:05;14.10;77.80
40538;DHT22;27925;41.874;12.526;2023-03-14T03:01:31;14.10;77.60
40538;DHT22;27925;41.874;12.526;2023-03-14T03:03:58;14.10;77.30
40538;DHT22;27925;41.874;12.526;2023-03-14T03:06:23;14.00;77.00
40538;DHT22;27925;41.874;12.526;2023-03-14T03:08:49;14.00;77.00
40538;DHT22;27925;41.874;12.526;2023-03-14T03:11:15;14.00;76.60
40538;DHT22;27925;41.874;12.526;2023-03-14T03:13:41;13.90;76.50
40538;DHT22;27925;41.874;12.526;2023-03-14T03:16:07;13.90;76.70
40538;DHT22;27925;41.874;12.526;2023-03-14T03:18:33;13.90;76.80
40538;DHT22;27925;41.874;12.526;2023-03-14T03:21:03;13.90;76.90
40538;DHT22;27925;41.874;12.526;2023-03-14T03:23:30;13.90;77.00
40538;DHT22;27925;41.874;12.526;2023-03-14T03:25:55;13.90;76.70
40538;DHT22;27925;41.874;12.526;2023-03-14T03:28:21;13.90;76.60
40538;DHT22;27925;41.874;12.526;2023-03-14T03:30:47;13.90;76.90
40538;DHT22;27925;41.874;12.526;2023-03-14T03:33:13;13.80;76.60
40538;DHT22;27925;41.874;12.526;2023-03-14T03:35:47;13.80;76.90
40538;DHT22;27925;41.874;12.526;2023-03-14T03:38:14;13.80;76.90
40538;DHT22;27925;41.874;12.526;2023-03-14T03:40:40;13.80;77.10
40538;DHT22;27925;41.874;12.526;2023-03-14T03:43:06;13.80;77.10
40538;DHT22;27925;41.874;12.526;2023-03-14T03:45:32;13.80;77.10
40538;DHT22;27925;41.874;12.526;2023-03-14T03:47:57;13.80;76.90
40538;DHT22;27925;41.874;12.526;2023-03-14T03:50:23;13.80;76.90
40538;DHT22;27925;41.874;12.526;2023-03-14T03:52:49;13.80;76.90
40538;DHT22;27925;41.874;12.526;2023-03-14T03:55:14;13.80;76.90
40538;DHT22;27925;41.874;12.526;2023-03-14T03:57:40;13.90;76.90
40538;DHT22;27925;41.874;12.526;2023-03-14T04:00:07;13.90;76.40
40538;DHT22;27925;41.874;12.526;2023-03-14T04:02:34;13.90;76.90
40538;DHT22;27925;41.874;12.526;2023-03-14T04:05:00;13.90;76.10
40538;DHT22;27925;41.874;12.526;2023-03-14T04:07:26;13.90;76.10
40538;DHT22;27925;41.874;12.526;2023-03-14T04:09:51;14.00;75.90
40538;DHT22;27925;41.874;12.526;2023-03-14T04:12:17;14.00;75.60
40538;DHT22;27925;41.874;12.526;2023-03-14T04:14:43;14.10;74.90
40538;DHT22;27925;41.874;12.526;2023-03-14T04:17:09;14.20;74.50
40538;DHT22;27925;41.874;12.526;2023-03-14T04:19:34;14.20;73.60
40538;DHT22;27925;41.874;12.526;2023-03-14T04:22:00;14.30;73.30
40538;DHT22;27925;41.874;12.526;2023-03-14T04:24:26;14.30;72.90
40538;DHT22;27925;41.874;12.526;2023-03-14T04:26:51;14.30;72.90
40538;DHT22;27925;41.874;12.526;2023-03-14T04:29:17;14.30;73.10
40538;DHT22;27925;41.874;12.526;2023-03-14T04:31:43;14.20;73.20
40538;DHT22;27925;41.874;12.526;2023-03-14T04:34:09;14.20;73.30
40538;DHT22;27925;41.874;12.526;2023-03-14T04:36:34;14.20;73.60
40538;DHT22;27925;41.874;12.526;2023-03-14T04:39:00;14.10;73.50
40538;DHT22;27925;41.874;12.526;2023-03-14T04:41:26;14.10;73.40
40538;DHT22;27925;41.874;12.526;2023-03-14T04:43:51;14.20;73.20
40538;DHT22;27925;41.874;12.526;2023-03-14T04:46:17;14.20;73.10
40538;DHT22;27925;41.874;12.526;2023-03-14T04:48:43;14.20;73.20
40538;DHT22;27925;41.874;12.526;2023-03-14T04:51:08;14.20;73.30
40538;DHT22;27925;41.874;12.526;2023-03-14T04:53:34;14.10;73.70
40538;DHT22;27925;41.874;12.526;2023-03-14T04:56:01;14.00;74.20
40538;DHT22;27925;41.874;12.526;2023-03-14T04:58:27;14.00;74.90
40538;DHT22;27925;41.874;12.526;2023-03-14T05:00:52;13.90;75.10
40538;DHT22;27925;41.874;12.526;2023-03-14T05:03:18;13.80;75.20
40538;DHT22;27925;41.874;12.526;2023-03-14T05:05:44;13.80;75.60
40538;DHT22;27925;41.874;12.526;2023-03-14T05:08:10;13.80;75.80
40538;DHT22;27925;41.874;12.526;2023-03-14T05:10:36;13.80;75.70
40538;DHT22;27925;41.874;12.526;2023-03-14T05:13:02;13.70;75.70
40538;DHT22;27925;41.874;12.526;2023-03-14T05:15:28;13.80;75.50
40538;DHT22;27925;41.874;12.526;2023-03-14T05:17:54;13.80;75.60
40538;DHT22;27925;41.874;12.526;2023-03-14T05:20:20;13.80;75.50
40538;DHT22;27925;41.874;12.526;2023-03-14T05:22:46;13.80;75.50
40538;DHT22;27925;41.874;12.526;2023-03-14T05:25:11;13.80;75.80
40538;DHT22;27925;41.874;12.526;2023-03-14T05:27:37;13.80;75.90
40538;DHT22;27925;41.874;12.526;2023-03-14T05:30:04;13.80;75.60
40538;DHT22;27925;41.874;12.526;2023-03-14T05:32:30;13.80;75.00
40538;DHT22;27925;41.874;12.526;2023-03-14T05:34:56;13.90;74.70
40538;DHT22;27925;41.874;12.526;2023-03-14T05:37:25;14.00;73.60
40538;DHT22;27925;41.874;12.526;2023-03-14T05:39:50;14.10;72.50
40538;DHT22;27925;41.874;12.526;2023-03-14T05:42:16;14.20;71.90
40538;DHT22;27925;41.874;12.526;2023-03-14T05:44:42;14.30;71.20
40538;DHT22;27925;41.874;12.526;2023-03-14T05:47:07;14.40;70.30
40538;DHT22;27925;41.874;12.526;2023-03-14T05:49:33;14.50;70.00
40538;DHT22;27925;41.874;12.526;2023-03-14T05:51:59;14.60;69.60
40538;DHT22;27925;41.874;12.526;2023-03-14T05:54:24;14.60;69.20
40538;DHT22;27925;41.874;12.526;2023-03-14T05:56:50;14.70;69.40
40538;DHT22;27925;41.874;12.526;2023-03-14T05:59:16;14.70;69.40
40538;DHT22;27925;41.874;12.526;2023-03-14T06:01:41;14.70;69.00
40538;DHT22;27925;41.874;12.526;2023-03-14T06:04:07;14.80;69.00
40538;DHT22;27925;41.874;12.526;2023-03-14T06:06:33;14.80;68.80
40538;DHT22;27925;41.874;12.526;2023-03-14T06:08:59;14.80;68.70
40538;DHT22;27925;41.874;12.526;2023-03-14T06:11:24;14.80;69.00
40538;DHT22;27925;41.874;12.526;2023-03-14T06:13:51;14.80;68.90
40538;DHT22;27925;41.874;12.526;2023-03-14T06:16:17;14.90;69.00
40538;DHT22;27925;41.874;12.526;2023-03-14T06:18:42;14.90;69.20
40538;DHT22;27925;41.874;12.526;2023-03-14T06:21:08;14.90;69.20
40538;DHT22;27925;41.874;12.526;2023-03-14T06:23:34;14.90;69.00
40538;DHT22;27925;41.874;12.526;2023-03-14T06:25:59;15.00;69.20
40538;DHT22;27925;41.874;12.526;2023-03-14T06:28:26;15.00;69.40
40538;DHT22;27925;41.874;12.526;2023-03-14T06:30:52;15.00;69.50
40538;DHT22;27925;41.874;12.526;2023-03-14T06:33:17;15.10;69.30
40538;DHT22;27925;41.874;12.526;2023-03-14T06:35:43;15.10;69.30
40538;DHT22;27925;41.874;12.526;2023-03-14T06:38:09;15.20;69.10
40538;DHT22;27925;41.874;12.526;2023-03-14T06:40:35;15.20;69.10
40538;DHT22;27925;41.874;12.526;2023-03-14T06:43:00;15.30;69.70
40538;DHT22;27925;41.874;12.526;2023-03-14T06:45:26;15.40;69.00
40538;DHT22;27925;41.874;12.526;2023-03-14T06:47:52;15.50;68.70
40538;DHT22;27925;41.874;12.526;2023-03-14T06:50:18;15.50;68.10
40538;DHT22;27925;41.874;12.526;2023-03-14T06:52:43;15.60;67.90
40538;DHT22;27925;41.874;12.526;2023-03-14T06:55:14;15.60;67.90
40538;DHT22;27925;41.874;12.526;2023-03-14T06:57:40;15.70;67.70
40538;DHT22;27925;41.874;12.526;2023-03-14T07:00:07;15.90;68.00
40538;DHT22;27925;41.874;12.526;2023-03-14T07:02:34;16.00;67.80
40538;DHT22;27925;41.874;12.526;2023-03-14T07:05:00;16.10;67.40
40538;DHT22;27925;41.874;12.526;2023-03-14T07:07:26;16.30;67.50
40538;DHT22;27925;41.874;12.526;2023-03-14T07:09:52;16.40;67.00
40538;DHT22;27925;41.874;12.526;2023-03-14T07:12:18;16.50;67.00
40538;DHT22;27925;41.874;12.526;2023-03-14T07:14:43;16.70;66.60
40538;DHT22;27925;41.874;12.526;2023-03-14T07:17:09;16.90;66.60
40538;DHT22;27925;41.874;12.526;2023-03-14T07:19:35;17.10;66.20
40538;DHT22;27925;41.874;12.526;2023-03-14T07:22:01;17.20;65.70
40538;DHT22;27925;41.874;12.526;2023-03-14T07:24:26;17.40;65.20
40538;DHT22;27925;41.874;12.526;2023-03-14T07:26:52;17.50;64.60
40538;DHT22;27925;41.874;12.526;2023-03-14T07:29:18;17.60;64.30
40538;DHT22;27925;41.874;12.526;2023-03-14T07:31:44;17.70;63.90
40538;DHT22;27925;41.874;12.526;2023-03-14T07:34:09;17.80;63.30
40538;DHT22;27925;41.874;12.526;2023-03-14T07:36:35;17.80;63.60
40538;DHT22;27925;41.874;12.526;2023-03-14T07:39:01;17.90;63.50
40538;DHT22;27925;41.874;12.526;2023-03-14T07:41:26;18.00;63.30
40538;DHT22;27925;41.874;12.526;2023-03-14T07:43:52;18.00;63.40
40538;DHT22;27925;41.874;12.526;2023-03-14T07:46:18;18.00;63.70
40538;DHT22;27925;41.874;12.526;2023-03-14T07:48:44;18.00;63.80
40538;DHT22;27925;41.874;12.526;2023-03-14T07:51:09;18.10;64.10
40538;DHT22;27925;41.874;12.526;2023-03-14T07:53:35;18.20;64.00
40538;DHT22;27925;41.874;12.526;2023-03-14T07:56:01;18.10;64.00
40538;DHT22;27925;41.874;12.526;2023-03-14T07:58:26;18.10;64.40
40538;DHT22;27925;41.874;12.526;2023-03-14T08:00:52;18.10;64.70
40538;DHT22;27925;41.874;12.526;2023-03-14T08:03:18;18.10;64.90
40538;DHT22;27925;41.874;12.526;2023-03-14T08:05:47;18.00;65.40
40538;DHT22;27925;41.874;12.526;2023-03-14T08:08:13;18.00;65.60
40538;DHT22;27925;41.874;12.526;2023-03-14T08:10:38;17.90;65.80
40538;DHT22;27925;41.874;12.526;2023-03-14T08:13:04;17.80;66.10
40538;DHT22;27925;41.874;12.526;2023-03-14T08:15:30;17.70;66.30
40538;DHT22;27925;41.874;12.526;2023-03-14T08:17:57;17.70;66.40
40538;DHT22;27925;41.874;12.526;2023-03-14T08:20:26;17.70;66.50
40538;DHT22;27925;41.874;12.526;2023-03-14T08:22:52;17.70;66.70
40538;DHT22;27925;41.874;12.526;2023-03-14T08:25:18;17.80;66.70
40538;DHT22;27925;41.874;12.526;2023-03-14T08:27:44;18.00;66.40
40538;DHT22;27925;41.874;12.526;2023-03-14T08:30:11;18.00;66.60
40538;DHT22;27925;41.874;12.526;2023-03-14T08:32:37;18.00;66.50
40538;DHT22;27925;41.874;12.526;2023-03-14T08:35:04;18.00;66.60
40538;DHT22;27925;41.874;12.526;2023-03-14T08:37:32;18.00;66.40
40538;DHT22;27925;41.874;12.526;2023-03-14T08:39:57;18.10;66.70
40538;DHT22;27925;41.874;12.526;2023-03-14T08:42:23;18.20;66.70
40538;DHT22;27925;41.874;12.526;2023-03-14T08:44:51;18.30;66.80
40538;DHT22;27925;41.874;12.526;2023-03-14T08:47:17;18.40;66.80
40538;DHT22;27925;41.874;12.526;2023-03-14T08:49:43;18.40;66.60
40538;DHT22;27925;41.874;12.526;2023-03-14T08:52:09;18.40;66.40
40538;DHT22;27925;41.874;12.526;2023-03-14T08:54:34;18.40;66.40
40538;DHT22;27925;41.874;12.526;2023-03-14T08:57:00;18.40;66.60
40538;DHT22;27925;41.874;12.526;2023-03-14T08:59:26;18.40;66.70
40538;DHT22;27925;41.874;12.526;2023-03-14T09:01:51;18.40;66.60
40538;DHT22;27925;41.874;12.526;2023-03-14T09:04:18;18.30;66.50
40538;DHT22;27925;41.874;12.526;2023-03-14T09:06:43;18.40;66.70
40538;DHT22;27925;41.874;12.526;2023-03-14T09:09:09;18.40;66.80
40538;DHT22;27925;41.874;12.526;2023-03-14T09:11:35;18.50;66.60
40538;DHT22;27925;41.874;12.526;2023-03-14T09:14:01;18.60;66.50
40538;DHT22;27925;41.874;12.526;2023-03-14T09:16:26;18.70;66.00
40538;DHT22;27925;41.874;12.526;2023-03-14T09:18:52;18.70;65.80
40538;DHT22;27925;41.874;12.526;2023-03-14T09:21:27;18.80;65.70
40538;DHT22;27925;41.874;12.526;2023-03-14T09:23:53;18.80;65.70
40538;DHT22;27925;41.874;12.526;2023-03-14T09:26:19;18.90;65.60
40538;DHT22;27925;41.874;12.526;2023-03-14T09:28:45;18.90;65.30
40538;DHT22;27925;41.874;12.526;2023-03-14T09:31:11;18.90;65.40
40538;DHT22;27925;41.874;12.526;2023-03-14T09:33:37;18.80;65.40
40538;DHT22;27925;41.874;12.526;2023-03-14T09:36:03;18.70;65.40
40538;DHT22;27925;41.874;12.526;2023-03-14T09:38:29;18.60;65.90
40538;DHT22;27925;41.874;12.526;2023-03-14T09:40:57;18.50;66.00
40538;DHT22;27925;41.874;12.526;2023-03-14T09:43:24;18.50;66.50
40538;DHT22;27925;41.874;12.526;2023-03-14T09:45:51;18.40;66.60
40538;DHT22;27925;41.874;12.526;2023-03-14T09:48:23;18.30;67.00
40538;DHT22;27925;41.874;12.526;2023-03-14T09:50:53;18.30;67.20
40538;DHT22;27925;41.874;12.526;2023-03-14T09:53:42;18.20;67.20
40538;DHT22;27925;41.874;12.526;2023-03-14T09:56:27;18.10;67.20
40538;DHT22;27925;41.874;12.526;2023-03-14T09:59:01;18.10;67.40
40538;DHT22;27925;41.874;12.526;2023-03-14T10:01:32;18.00;67.30
40538;DHT22;27925;41.874;12.526;2023-03-14T10:04:07;18.00;67.50
40538;DHT22;27925;41.874;12.526;2023-03-14T10:06:35;18.00;67.80
40538;DHT22;27925;41.874;12.526;2023-03-14T10:09:02;18.00;67.80
40538;DHT22;27925;41.874;12.526;2023-03-14T10:11:29;17.90;67.60
40538;DHT22;27925;41.874;12.526;2023-03-14T10:16:31;17.90;67.90
40538;DHT22;27925;41.874;12.526;2023-03-14T10:19:11;17.90;67.90
40538;DHT22;27925;41.874;12.526;2023-03-14T10:21:40;17.90;68.00
40538;DHT22;27925;41.874;12.526;2023-03-14T10:26:48;17.80;68.20
40538;DHT22;27925;41.874;12.526;2023-03-14T10:29:14;17.80;68.30
40538;DHT22;27925;41.874;12.526;2023-03-14T10:34:17;17.80;68.20
40538;DHT22;27925;41.874;12.526;2023-03-14T10:36:46;17.80;68.20
40538;DHT22;27925;41.874;12.526;2023-03-14T10:39:51;17.80;68.10
40538;DHT22;27925;41.874;12.526;2023-03-14T10:42:19;17.90;68.10
40538;DHT22;27925;41.874;12.526;2023-03-14T10:44:49;17.80;68.10
40538;DHT22;27925;41.874;12.526;2023-03-14T10:47:19;17.80;67.90
40538;DHT22;27925;41.874;12.526;2023-03-14T10:49:55;17.80;68.10
40538;DHT22;27925;41.874;12.526;2023-03-14T10:52:27;17.80;68.10
40538;DHT22;27925;41.874;12.526;2023-03-14T10:55:10;17.70;68.50
40538;DHT22;27925;41.874;12.526;2023-03-14T10:57:43;17.70;68.60
40538;DHT22;27925;41.874;12.526;2023-03-14T11:00:21;17.70;68.50
40538;DHT22;27925;41.874;12.526;2023-03-14T11:03:08;17.60;68.60
40538;DHT22;27925;41.874;12.526;2023-03-14T11:06:14;17.60;68.60
40538;DHT22;27925;41.874;12.526;2023-03-14T11:11:22;17.60;69.20
40538;DHT22;27925;41.874;12.526;2023-03-14T11:14:00;17.50;69.20
40538;DHT22;27925;41.874;12.526;2023-03-14T11:19:51;17.40;69.60
40538;DHT22;27925;41.874;12.526;2023-03-14T11:25:02;17.40;69.20
40538;DHT22;27925;41.874;12.526;2023-03-14T11:33:24;17.40;70.20
40538;DHT22;27925;41.874;12.526;2023-03-14T11:36:13;17.30;70.90
40538;DHT22;27925;41.874;12.526;2023-03-14T11:38:48;17.30;71.10
40538;DHT22;27925;41.874;12.526;2023-03-14T11:41:31;17.30;70.70
40538;DHT22;27925;41.874;12.526;2023-03-14T11:44:10;17.30;70.50
40538;DHT22;27925;41.874;12.526;2023-03-14T11:46:45;17.40;71.90
40538;DHT22;27925;41.874;12.526;2023-03-14T11:52:03;17.30;71.50
40538;DHT22;27925;41.874;12.526;2023-03-14T11:57:12;17.30;72.00
40538;DHT22;27925;41.874;12.526;2023-03-14T12:10:49;17.30;72.10
40538;DHT22;27925;41.874;12.526;2023-03-14T12:13:17;17.50;71.90
40538;DHT22;27925;41.874;12.526;2023-03-14T12:15:55;17.70;71.60
40538;DHT22;27925;41.874;12.526;2023-03-14T12:18:26;17.80;71.00
40538;DHT22;27925;41.874;12.526;2023-03-14T12:21:03;17.80;71.00
40538;DHT22;27925;41.874;12.526;2023-03-14T12:23:53;17.70;71.40
40538;DHT22;27925;41.874;12.526;2023-03-14T12:26:27;17.50;72.40
40538;DHT22;27925;41.874;12.526;2023-03-14T12:29:15;17.40;71.80
40538;DHT22;27925;41.874;12.526;2023-03-14T12:31:44;17.40;71.90
40538;DHT22;27925;41.874;12.526;2023-03-14T12:42:13;17.30;73.00
40538;DHT22;27925;41.874;12.526;2023-03-14T12:44:43;17.30;73.10
40538;DHT22;27925;41.874;12.526;2023-03-14T12:49:49;17.60;72.00
40538;DHT22;27925;41.874;12.526;2023-03-14T12:52:20;17.60;71.70
40538;DHT22;27925;41.874;12.526;2023-03-14T12:55:53;17.70;71.60
40538;DHT22;27925;41.874;12.526;2023-03-14T13:00:24;17.80;71.90
40538;DHT22;27925;41.874;12.526;2023-03-14T13:03:20;17.90;71.10
40538;DHT22;27925;41.874;12.526;2023-03-14T13:06:03;18.00;70.90
40538;DHT22;27925;41.874;12.526;2023-03-14T13:08:41;18.20;70.00
40538;DHT22;27925;41.874;12.526;2023-03-14T13:11:19;18.50;69.40
40538;DHT22;27925;41.874;12.526;2023-03-14T13:13:52;18.70;68.90
40538;DHT22;27925;41.874;12.526;2023-03-14T13:16:20;19.00;68.60
40538;DHT22;27925;41.874;12.526;2023-03-14T13:18:47;19.10;68.40
40538;DHT22;27925;41.874;12.526;2023-03-14T13:24:00;18.80;68.70
40538;DHT22;27925;41.874;12.526;2023-03-14T13:26:41;18.70;69.40
40538;DHT22;27925;41.874;12.526;2023-03-14T13:29:23;18.60;69.40
40538;DHT22;27925;41.874;12.526;2023-03-14T13:31:55;18.50;69.60
40538;DHT22;27925;41.874;12.526;2023-03-14T13:34:30;18.40;69.60
40538;DHT22;27925;41.874;12.526;2023-03-14T13:36:57;18.30;70.20
40538;DHT22;27925;41.874;12.526;2023-03-14T13:39:25;18.20;70.00
40538;DHT22;27925;41.874;12.526;2023-03-14T13:42:01;18.10;70.10
40538;DHT22;27925;41.874;12.526;2023-03-14T13:44:39;18.00;70.40
40538;DHT22;27925;41.874;12.526;2023-03-14T13:47:10;17.90;70.50
40538;DHT22;27925;41.874;12.526;2023-03-14T13:49:38;17.80;70.70
40538;DHT22;27925;41.874;12.526;2023-03-14T13:54:46;17.60;71.20
40538;DHT22;27925;41.874;12.526;2023-03-14T13:57:12;17.60;71.40
40538;DHT22;27925;41.874;12.526;2023-03-14T13:59:38;17.60;71.30
40538;DHT22;27925;41.874;12.526;2023-03-14T14:02:12;17.50;71.40
40538;DHT22;27925;41.874;12.526;2023-03-14T14:04:38;17.50;71.30
40538;DHT22;27925;41.874;12.526;2023-03-14T14:07:09;17.50;71.50
40538;DHT22;27925;41.874;12.526;2023-03-14T14:09:39;17.50;71.50
40538;DHT22;27925;41.874;12.526;2023-03-14T14:12:08;17.40;71.40
40538;DHT22;27925;41.874;12.526;2023-03-14T14:17:14;17.40;72.60
40538;DHT22;27925;41.874;12.526;2023-03-14T14:19:41;17.30;72.00
40538;DHT22;27925;41.874;12.526;2023-03-14T14:22:09;17.30;72.00
40538;DHT22;27925;41.874;12.526;2023-03-14T14:24:36;17.30;72.40
40538;DHT22;27925;41.874;12.526;2023-03-14T14:27:38;17.20;72.70
40538;DHT22;27925;41.874;12.526;2023-03-14T14:30:24;17.20;73.90
40538;DHT22;27925;41.874;12.526;2023-03-14T14:32:50;17.10;73.80
40538;DHT22;27925;41.874;12.526;2023-03-14T14:35:26;17.10;74.30
40538;DHT22;27925;41.874;12.526;2023-03-14T14:37:55;17.00;75.00
40538;DHT22;27925;41.874;12.526;2023-03-14T14:40:26;17.00;74.50
40538;DHT22;27925;41.874;12.526;2023-03-14T14:42:53;17.10;74.70
40538;DHT22;27925;41.874;12.526;2023-03-14T14:45:22;17.10;74.70
40538;DHT22;27925;41.874;12.526;2023-03-14T14:47:50;17.20;74.80
40538;DHT22;27925;41.874;12.526;2023-03-14T14:53:00;17.30;75.40
40538;DHT22;27925;41.874;12.526;2023-03-14T14:55:34;17.30;75.50
40538;DHT22;27925;41.874;12.526;2023-03-14T14:58:17;17.30;75.40
40538;DHT22;27925;41.874;12.526;2023-03-14T15:00:54;17.20;75.80
40538;DHT22;27925;41.874;12.526;2023-03-14T15:03:20;17.10;76.70
40538;DHT22;27925;41.874;12.526;2023-03-14T15:05:45;17.00;76.90
40538;DHT22;27925;41.874;12.526;2023-03-14T15:08:12;17.00;77.30
40538;DHT22;27925;41.874;12.526;2023-03-14T15:10:37;16.90;77.80
40538;DHT22;27925;41.874;12.526;2023-03-14T15:13:03;17.00;78.30
40538;DHT22;27925;41.874;12.526;2023-03-14T15:15:29;17.10;78.40
40538;DHT22;27925;41.874;12.526;2023-03-14T15:17:54;17.10;78.60
40538;DHT22;27925;41.874;12.526;2023-03-14T15:20:20;17.00;78.70
40538;DHT22;27925;41.874;12.526;2023-03-14T15:22:49;17.00;79.20
40538;DHT22;27925;41.874;12.526;2023-03-14T15:25:15;17.10;79.30
40538;DHT22;27925;41.874;12.526;2023-03-14T15:27:41;17.20;79.00
40538;DHT22;27925;41.874;12.526;2023-03-14T15:30:15;17.30;78.90
40538;DHT22;27925;41.874;12.526;2023-03-14T15:32:41;17.30;79.00
40538;DHT22;27925;41.874;12.526;2023-03-14T15:35:08;17.20;79.00
40538;DHT22;27925;41.874;12.526;2023-03-14T15:37:34;17.10;79.40
40538;DHT22;27925;41.874;12.526;2023-03-14T15:40:01;17.00;79.70
40538;DHT22;27925;41.874;12.526;2023-03-14T15:42:28;17.10;79.60
40538;DHT22;27925;41.874;12.526;2023-03-14T15:44:54;17.20;79.20
40538;DHT22;27925;41.874;12.526;2023-03-14T15:47:19;17.30;79.10
40538;DHT22;27925;41.874;12.526;2023-03-14T15:49:45;17.30;79.10
40538;DHT22;27925;41.874;12.526;2023-03-14T15:52:11;17.20;79.30
40538;DHT22;27925;41.874;12.526;2023-03-14T15:54:37;17.10;79.20
40538;DHT22;27925;41.874;12.526;2023-03-14T15:57:02;17.10;79.20
40538;DHT22;27925;41.874;12.526;2023-03-14T15:59:29;17.10;79.30
40538;DHT22;27925;41.874;12.526;2023-03-14T16:01:54;17.10;79.20
40538;DHT22;27925;41.874;12.526;2023-03-14T16:04:20;17.10;79.00
40538;DHT22;27925;41.874;12.526;2023-03-14T16:06:46;17.10;79.10
40538;DHT22;27925;41.874;12.526;2023-03-14T16:09:14;17.10;79.10
40538;DHT22;27925;41.874;12.526;2023-03-14T16:11:40;17.10;79.30
40538;DHT22;27925;41.874;12.526;2023-03-14T16:14:06;17.10;79.00
40538;DHT22;27925;41.874;12.526;2023-03-14T16:16:32;17.10;79.10
40538;DHT22;27925;41.874;12.526;2023-03-14T16:18:58;17.10;78.90
40538;DHT22;27925;41.874;12.526;2023-03-14T16:21:23;17.10;78.20
40538;DHT22;27925;41.874;12.526;2023-03-14T16:23:49;17.20;77.70
40538;DHT22;27925;41.874;12.526;2023-03-14T16:26:17;17.30;77.10
40538;DHT22;27925;41.874;12.526;2023-03-14T16:28:44;17.40;76.20
40538;DHT22;27925;41.874;12.526;2023-03-14T16:31:16;17.50;75.50
40538;DHT22;27925;41.874;12.526;2023-03-14T16:33:42;17.50;75.20
40538;DHT22;27925;41.874;12.526;2023-03-14T16:36:11;17.50;74.20
40538;DHT22;27925;41.874;12.526;2023-03-14T16:38:39;17.50;74.00